Time;durP1;ratioP1;P1;durP2;ratioP2;P2;SDS_P1;SDS_P2;PMS_P1;PMS_P2;Temp;Humidity;BMP_temperature;BMP_pressure;BME280_temperature;BME280_humidity;BME280_pressure;Samples;Min_cycle;Max_cycle;Signal;HPM_P1;HPM_P2
2023/04/13 00:02:22;;;;;;;2.83;0.60;;;;;;;4.55;100.00;96118.28;5032941;28;20048;-64
2023/04/13 00:04:50;;;;;;;2.40;0.60;;;;;;;4.58;100.00;96124.19;5032854;28;20057;-65
2023/04/13 00:07:17;;;;;;;3.30;0.70;;;;;;;4.62;100.00;96128.84;5026892;28;20053;-65
2023/04/13 00:09:46;;;;;;;2.30;0.50;;;;;;;4.74;100.00;96126.06;5024735;28;20042;-64
2023/04/13 00:12:14;;;;;;;1.27;0.40;;;;;;;4.64;100.00;96129.38;5021926;28;20057;-65
2023/04/13 00:14:42;;;;;;;3.03;0.82;;;;;;;4.66;100.00;96129.97;5025088;28;20061;-64
2023/04/13 00:17:09;;;;;;;1.48;0.40;;;;;;;4.63;100.00;96129.63;5014112;28;20033;-65
2023/04/13 00:19:36;;;;;;;2.28;0.50;;;;;;;4.87;100.00;96124.88;5026108;28;20042;-65
2023/04/13 00:22:03;;;;;;;1.00;0.35;;;;;;;5.05;100.00;96125.69;5028406;28;20107;-65
2023/04/13 00:24:29;;;;;;;1.23;0.50;;;;;;;5.24;97.61;96131.59;5019575;28;20095;-64
2023/04/13 00:26:56;;;;;;;0.77;0.50;;;;;;;5.22;97.32;96128.34;5033778;28;20125;-64
2023/04/13 00:29:22;;;;;;;1.27;0.50;;;;;;;5.23;99.91;96137.19;5028369;28;20565;-64
2023/04/13 00:31:49;;;;;;;2.63;0.57;;;;;;;5.00;99.72;96136.34;5020795;28;20064;-64
2023/04/13 00:34:15;;;;;;;2.05;0.45;;;;;;;5.04;99.49;96124.88;5026228;28;20034;-64
2023/04/13 00:36:42;;;;;;;0.68;0.38;;;;;;;5.09;100.00;96134.88;5025999;28;20041;-65
2023/04/13 00:39:09;;;;;;;2.92;0.63;;;;;;;5.00;99.37;96128.28;5025053;28;20698;-64
2023/04/13 00:41:36;;;;;;;2.10;0.40;;;;;;;4.91;100.00;96126.03;5030521;28;20497;-64
2023/04/13 00:44:02;;;;;;;1.70;0.55;;;;;;;4.76;100.00;96126.63;5028886;28;20652;-64
2023/04/13 00:46:30;;;;;;;1.63;0.50;;;;;;;4.76;100.00;96118.56;5021662;28;20463;-64
2023/04/13 00:49:00;;;;;;;1.27;0.73;;;;;;;4.71;100.00;96106.97;5026192;28;20421;-64
2023/04/13 00:51:29;;;;;;;1.33;0.50;;;;;;;4.60;100.00;96116.75;5018315;28;20236;-64
2023/04/13 00:53:57;;;;;;;1.08;0.32;;;;;;;4.69;100.00;96116.06;5019130;28;20048;-64
2023/04/13 00:56:26;;;;;;;2.67;0.70;;;;;;;4.54;100.00;96115.84;5031315;28;20532;-64
2023/04/13 00:58:53;;;;;;;1.83;0.40;;;;;;;4.46;100.00;96124.28;5016630;28;20042;-64
2023/04/13 01:01:20;;;;;;;0.98;0.40;;;;;;;4.63;100.00;96118.91;5025366;28;20044;-65
2023/04/13 01:03:47;;;;;;;1.75;0.45;;;;;;;4.42;100.00;96118.59;5026921;28;20136;-65
2023/04/13 01:06:30;;;;;;;1.50;0.60;;;;;;;4.22;100.00;96117.22;5026341;28;20504;-65
2023/04/13 01:09:07;;;;;;;0.98;0.50;;;;;;;4.25;100.00;96119.41;5023370;28;20063;-65
2023/04/13 01:11:40;;;;;;;2.10;0.50;;;;;;;4.21;100.00;96118.28;5027922;28;20504;-65
2023/04/13 01:14:27;;;;;;;4.97;0.60;;;;;;;4.13;100.00;96126.69;5016728;28;20145;-65
2023/04/13 01:17:01;;;;;;;1.92;0.60;;;;;;;3.94;100.00;96132.25;5010490;28;20044;-64
2023/04/13 01:19:58;;;;;;;2.00;0.50;;;;;;;3.93;100.00;96129.81;5021037;28;20042;-64
2023/04/13 01:22:34;;;;;;;4.28;0.60;;;;;;;3.91;100.00;96135.41;5016528;28;20135;-65
2023/04/13 01:25:30;;;;;;;1.27;0.47;;;;;;;3.84;100.00;96132.88;5028544;28;20041;-64
2023/04/13 01:28:10;;;;;;;2.25;0.47;;;;;;;3.71;100.00;96130.47;5028803;28;20087;-64
2023/04/13 01:30:38;;;;;;;1.13;0.55;;;;;;;3.60;100.00;96134.81;5010400;28;20052;-64
2023/04/13 01:33:06;;;;;;;2.58;0.70;;;;;;;3.58;100.00;96131.59;5021104;28;20045;-64
2023/04/13 01:35:34;;;;;;;1.75;0.40;;;;;;;3.51;100.00;96119.13;5025593;28;20034;-64
2023/04/13 01:38:02;;;;;;;0.90;0.50;;;;;;;3.44;100.00;96117.66;5022337;28;20062;-64
2023/04/13 01:40:31;;;;;;;2.40;0.77;;;;;;;3.44;100.00;96120.31;5026546;28;20108;-65
2023/04/13 01:42:58;;;;;;;2.35;0.50;;;;;;;3.36;100.00;96116.16;5022648;28;20067;-64
2023/04/13 01:45:48;;;;;;;1.00;0.52;;;;;;;3.47;100.00;96115.31;5028139;28;20103;-64
2023/04/13 01:48:33;;;;;;;1.80;0.40;;;;;;;3.66;100.00;96114.31;5017615;28;20042;-64
2023/04/13 01:51:16;;;;;;;1.50;0.47;;;;;;;3.75;100.00;96112.88;5015082;28;20521;-64
2023/04/13 01:54:09;;;;;;;1.52;0.57;;;;;;;3.77;100.00;96118.81;5010465;28;20038;-64
2023/04/13 01:56:40;;;;;;;1.48;0.50;;;;;;;3.83;100.00;96117.84;5028454;28;20525;-64
2023/04/13 01:59:08;;;;;;;3.10;0.70;;;;;;;3.95;100.00;96117.81;5008604;28;20124;-64
2023/04/13 02:01:37;;;;;;;1.30;0.43;;;;;;;3.89;100.00;96113.41;5012349;28;20112;-64
2023/04/13 02:04:06;;;;;;;4.18;0.90;;;;;;;3.95;100.00;96109.78;5021561;28;20069;-63
2023/04/13 02:06:33;;;;;;;3.00;0.60;;;;;;;3.77;100.00;96110.78;5020963;28;20037;-64
2023/04/13 02:09:05;;;;;;;1.40;0.50;;;;;;;3.56;100.00;96112.25;5027393;28;20041;-64
2023/04/13 02:11:34;;;;;;;1.45;0.50;;;;;;;3.41;100.00;96102.88;5027946;28;20061;-64
2023/04/13 02:14:03;;;;;;;1.92;0.50;;;;;;;3.24;100.00;96108.16;5020684;28;20128;-64
2023/04/13 02:16:30;;;;;;;2.33;0.40;;;;;;;3.02;100.00;96116.00;5021664;28;20076;-64
2023/04/13 02:18:57;;;;;;;1.70;0.50;;;;;;;3.04;100.00;96112.03;5018806;28;20057;-64
2023/04/13 02:21:24;;;;;;;1.05;0.40;;;;;;;3.12;100.00;96113.53;5020044;28;20048;-64
2023/04/13 02:23:51;;;;;;;1.27;0.50;;;;;;;3.06;100.00;96109.13;5026790;28;20037;-64
2023/04/13 02:26:20;;;;;;;1.27;0.70;;;;;;;3.13;100.00;96109.81;5032505;28;20126;-64
2023/04/13 02:28:48;;;;;;;1.30;0.50;;;;;;;3.02;100.00;96107.97;5014051;28;20049;-64
2023/04/13 02:31:15;;;;;;;1.25;0.50;;;;;;;3.00;100.00;96110.88;5025513;28;20037;-64
2023/04/13 02:33:45;;;;;;;2.70;0.50;;;;;;;3.10;100.00;96104.94;5018606;28;20620;-64
2023/04/13 02:36:12;;;;;;;0.93;0.50;;;;;;;3.20;100.00;96110.50;5034616;28;20575;-64
2023/04/13 02:38:47;;;;;;;1.67;0.50;;;;;;;3.01;100.00;96109.00;5038888;28;20559;-64
2023/04/13 02:41:24;;;;;;;1.25;0.60;;;;;;;2.83;100.00;96111.59;5014165;28;20132;-64
2023/04/13 02:43:51;;;;;;;0.70;0.40;;;;;;;2.63;100.00;96117.28;5028859;28;20051;-64
2023/04/13 02:46:22;;;;;;;3.05;0.70;;;;;;;2.37;100.00;96116.69;5019369;28;20045;-63
2023/04/13 02:48:55;;;;;;;1.63;0.60;;;;;;;2.20;100.00;96120.03;5026529;28;20036;-64
2023/04/13 02:51:22;;;;;;;5.80;0.90;;;;;;;2.21;100.00;96118.16;5017218;28;20469;-64
2023/04/13 02:53:50;;;;;;;3.00;0.85;;;;;;;2.05;100.00;96117.78;5024067;28;20036;-64
2023/04/13 02:56:17;;;;;;;1.15;0.52;;;;;;;1.94;100.00;96118.56;5020217;28;20045;-65
2023/04/13 02:58:47;;;;;;;2.13;0.60;;;;;;;1.47;100.00;96121.88;5024026;28;20076;-64
2023/04/13 03:01:16;;;;;;;1.00;0.60;;;;;;;1.42;100.00;96125.19;5022036;28;20041;-64
2023/04/13 03:03:44;;;;;;;3.03;0.65;;;;;;;1.47;100.00;96121.88;5019570;28;20041;-64
2023/04/13 03:06:11;;;;;;;1.85;0.80;;;;;;;1.52;100.00;96128.13;5012632;28;20049;-64
2023/04/13 03:08:45;;;;;;;1.55;0.60;;;;;;;1.40;100.00;96122.75;5013033;28;20054;-64
2023/04/13 03:11:22;;;;;;;1.35;0.60;;;;;;;1.50;100.00;96140.91;5025686;28;20060;-64
2023/04/13 03:13:56;;;;;;;1.33;0.47;;;;;;;1.47;100.00;96138.69;5027944;28;20041;-64
2023/04/13 03:16:24;;;;;;;3.75;0.60;;;;;;;1.21;100.00;96142.50;5042390;28;20041;-64
2023/04/13 03:18:51;;;;;;;1.48;0.63;;;;;;;1.39;100.00;96154.97;5017447;28;20663;-64
2023/04/13 03:21:18;;;;;;;3.03;0.75;;;;;;;1.26;100.00;96148.75;5027667;28;20063;-64
2023/04/13 03:23:56;;;;;;;1.95;0.80;;;;;;;1.19;100.00;96152.56;5037362;28;20049;-64
2023/04/13 03:26:26;;;;;;;3.13;0.65;;;;;;;1.20;100.00;96167.50;5019796;28;20099;-64
2023/04/13 03:28:56;;;;;;;3.45;0.75;;;;;;;1.08;100.00;96167.44;5031880;28;20037;-64
2023/04/13 03:31:25;;;;;;;1.33;0.90;;;;;;;1.05;100.00;96168.69;5020397;28;20204;-64
2023/04/13 03:33:52;;;;;;;1.75;0.80;;;;;;;1.02;100.00;96177.13;5014819;28;20052;-64
2023/04/13 03:36:19;;;;;;;4.20;0.88;;;;;;;1.32;100.00;96183.59;5026685;28;20064;-63
2023/04/13 03:38:46;;;;;;;2.92;0.77;;;;;;;1.00;100.00;96188.00;5026897;28;20037;-63
2023/04/13 03:41:14;;;;;;;4.18;0.85;;;;;;;0.89;100.00;96194.88;5017176;28;20057;-64
2023/04/13 03:43:44;;;;;;;3.30;0.90;;;;;;;1.04;100.00;96199.06;5026519;28;20049;-63
2023/04/13 03:46:12;;;;;;;5.00;2.55;;;;;;;1.26;100.00;96199.44;5019396;28;20038;-64
2023/04/13 03:48:40;;;;;;;5.43;1.08;;;;;;;1.41;100.00;96195.59;5024261;28;20034;-63
2023/04/13 03:51:08;;;;;;;4.90;1.20;;;;;;;1.50;100.00;96180.09;5017409;28;20072;-64
2023/04/13 03:53:45;;;;;;;3.15;1.48;;;;;;;1.80;100.00;96177.47;5016278;28;20050;-64
2023/04/13 03:56:12;;;;;;;2.70;1.40;;;;;;;2.00;100.00;96170.25;5027158;28;20041;-64
2023/04/13 03:58:40;;;;;;;5.55;1.10;;;;;;;2.17;100.00;96165.06;5031469;28;20040;-64
2023/04/13 04:01:09;;;;;;;4.88;1.90;;;;;;;2.34;100.00;96167.91;5011773;28;20137;-64
2023/04/13 04:03:43;;;;;;;1.88;0.90;;;;;;;2.49;100.00;96151.44;5020049;28;20046;-64
2023/04/13 04:06:10;;;;;;;4.00;0.90;;;;;;;2.68;100.00;96157.50;5019173;28;20033;-64
2023/04/13 04:08:42;;;;;;;2.25;0.80;;;;;;;3.07;100.00;96161.56;5027036;28;20047;-64
2023/04/13 04:11:21;;;;;;;4.75;1.20;;;;;;;3.18;100.00;96155.41;5010126;28;20461;-64
2023/04/13 04:13:48;;;;;;;2.78;0.80;;;;;;;3.24;100.00;96156.31;5016805;28;20038;-64
2023/04/13 04:16:15;;;;;;;2.08;0.93;;;;;;;3.31;100.00;96164.22;5020892;28;20602;-64
2023/04/13 04:18:47;;;;;;;1.55;0.68;;;;;;;3.32;100.00;96161.28;5016572;28;20501;-64
2023/04/13 04:21:20;;;;;;;5.00;0.82;;;;;;;3.42;100.00;96162.59;5020571;28;21132;-64
2023/04/13 04:23:47;;;;;;;1.65;0.70;;;;;;;3.51;100.00;96178.00;5024024;28;20037;-64
2023/04/13 04:26:16;;;;;;;4.85;0.93;;;;;;;3.63;100.00;96175.31;5016555;28;20056;-64
2023/04/13 04:29:00;;;;;;;5.30;0.68;;;;;;;3.65;100.00;96185.81;5026796;28;20506;-64
2023/04/13 04:31:33;;;;;;;3.53;0.80;;;;;;;3.67;100.00;96186.38;5023286;28;20042;-64
2023/04/13 04:34:05;;;;;;;2.90;0.80;;;;;;;3.74;100.00;96191.59;5026285;28;20044;-64
2023/04/13 04:36:35;;;;;;;3.58;1.00;;;;;;;3.74;100.00;96189.72;5027135;28;20497;-64
2023/04/13 04:39:03;;;;;;;1.58;0.70;;;;;;;3.75;100.00;96188.66;5023409;28;20124;-64
2023/04/13 04:41:36;;;;;;;2.38;0.77;;;;;;;3.75;100.00;96183.31;5017084;28;20050;-64
2023/04/13 04:44:06;;;;;;;2.05;0.85;;;;;;;3.77;100.00;96193.78;5021650;28;20512;-64
2023/04/13 04:46:37;;;;;;;3.03;0.90;;;;;;;3.73;100.00;96195.31;5015394;28;20036;-65
2023/04/13 04:49:07;;;;;;;2.78;0.80;;;;;;;3.70;100.00;96193.94;5020813;28;20038;-65
2023/04/13 04:51:35;;;;;;;1.55;0.75;;;;;;;3.74;100.00;96196.94;5024149;28;20045;-65
2023/04/13 04:54:02;;;;;;;3.40;0.88;;;;;;;3.71;100.00;96197.41;5028925;28;20087;-63
2023/04/13 04:56:29;;;;;;;2.47;0.80;;;;;;;3.74;100.00;96204.97;5030436;28;20061;-64
2023/04/13 04:58:56;;;;;;;2.75;1.00;;;;;;;3.75;100.00;96201.22;5029843;28;20037;-65
2023/04/13 05:01:33;;;;;;;7.43;0.90;;;;;;;3.80;100.00;96211.25;5033587;28;20048;-64
2023/04/13 05:04:08;;;;;;;4.75;1.00;;;;;;;3.79;100.00;96210.44;5029072;28;20053;-64
2023/04/13 05:06:40;;;;;;;1.77;1.00;;;;;;;3.82;100.00;96201.09;5032888;28;20037;-64
2023/04/13 05:09:09;;;;;;;;;;;;;;;3.81;100.00;96202.16;5030138;28;20053;-64
2023/04/13 05:11:38;;;;;;;1.33;0.70;;;;;;;3.84;100.00;96199.00;5023046;28;19976;-63
2023/04/13 05:14:07;;;;;;;3.60;0.82;;;;;;;3.92;100.00;96203.16;5026641;28;20682;-64
2023/04/13 05:16:34;;;;;;;1.83;0.82;;;;;;;3.93;100.00;96202.09;5036296;28;20555;-64
2023/04/13 05:19:09;;;;;;;4.88;1.08;;;;;;;3.96;100.00;96202.47;5026645;28;20048;-64
2023/04/13 05:22:01;;;;;;;5.13;1.13;;;;;;;3.94;100.00;96201.09;5026372;28;20063;-64
2023/04/13 05:24:34;;;;;;;1.92;0.77;;;;;;;3.92;100.00;96212.03;5025958;28;20418;-64
2023/04/13 05:27:10;;;;;;;3.72;1.00;;;;;;;3.97;100.00;96208.63;5026169;28;20512;-64
2023/04/13 05:29:37;;;;;;;3.08;0.90;;;;;;;3.99;100.00;96202.00;5022457;28;20041;-65
2023/04/13 05:32:04;;;;;;;2.45;0.82;;;;;;;4.01;100.00;96209.78;5026941;28;20424;-65
2023/04/13 05:34:32;;;;;;;4.70;1.00;;;;;;;4.07;100.00;96216.03;5028747;28;20051;-65
2023/04/13 05:37:09;;;;;;;2.72;1.00;;;;;;;4.06;100.00;96228.66;5019768;28;20081;-65
2023/04/13 05:39:35;;;;;;;5.13;1.00;;;;;;;4.08;100.00;96214.97;5020853;28;20056;-64
2023/04/13 05:42:02;;;;;;;6.78;1.38;;;;;;;4.14;100.00;96219.41;5021406;28;20045;-65
2023/04/13 05:44:33;;;;;;;6.05;0.80;;;;;;;4.18;100.00;96211.69;5028405;28;20049;-64
2023/04/13 05:47:01;;;;;;;3.40;1.67;;;;;;;4.06;100.00;96217.09;5019364;28;20038;-63
2023/04/13 05:49:30;;;;;;;4.20;1.00;;;;;;;4.12;100.00;96219.63;5029822;28;20056;-62
2023/04/13 05:51:57;;;;;;;2.60;1.27;;;;;;;4.08;100.00;96225.69;5026984;28;20057;-64
2023/04/13 05:54:35;;;;;;;6.03;1.10;;;;;;;4.21;100.00;96224.63;5019031;28;20052;-63
2023/04/13 05:57:01;;;;;;;4.00;1.10;;;;;;;4.37;100.00;96229.22;5020018;28;20053;-64
2023/04/13 05:59:28;;;;;;;8.07;1.13;;;;;;;4.45;99.25;96225.31;5027350;28;20057;-64
2023/04/13 06:01:58;;;;;;;3.47;0.90;;;;;;;4.54;100.00;96218.50;5026557;28;20523;-64
2023/04/13 06:04:25;;;;;;;2.65;0.98;;;;;;;4.51;99.32;96218.19;5024582;28;20554;-64
2023/04/13 06:06:54;;;;;;;2.67;0.85;;;;;;;4.48;98.03;96230.22;5029221;28;20447;-64
2023/04/13 06:09:21;;;;;;;2.70;0.80;;;;;;;4.57;97.72;96216.41;5033712;28;20053;-64
2023/04/13 06:11:48;;;;;;;3.75;1.45;;;;;;;4.68;96.65;96228.91;5028773;28;20770;-64
2023/04/13 06:14:16;;;;;;;5.72;1.02;;;;;;;4.97;97.03;96231.53;5024014;28;20073;-64
2023/04/13 06:16:43;;;;;;;3.30;0.85;;;;;;;5.12;95.56;96230.16;5029117;28;20489;-64
2023/04/13 06:19:11;;;;;;;3.10;1.10;;;;;;;5.19;93.88;96230.78;5030727;28;20041;-64
2023/04/13 06:21:38;;;;;;;2.35;0.80;;;;;;;5.24;93.40;96238.13;5028289;28;20045;-64
2023/04/13 06:24:04;;;;;;;6.35;1.17;;;;;;;5.18;93.19;96237.22;5024154;28;20226;-64
2023/04/13 06:26:35;;;;;;;4.72;0.98;;;;;;;5.16;93.33;96234.00;5030041;28;20068;-64
2023/04/13 06:29:01;;;;;;;5.90;1.63;;;;;;;5.20;93.70;96235.91;5029886;28;20052;-64
2023/04/13 06:31:33;;;;;;;3.15;0.75;;;;;;;5.26;93.37;96242.19;5030573;28;20040;-64
2023/04/13 06:34:08;;;;;;;4.88;1.00;;;;;;;5.33;92.32;96247.38;5027441;28;20049;-64
2023/04/13 06:36:36;;;;;;;1.90;0.60;;;;;;;5.36;91.36;96235.34;5024431;28;20079;-64
2023/04/13 06:39:03;;;;;;;3.00;0.88;;;;;;;5.33;92.93;96245.53;5027021;28;20041;-64
2023/04/13 06:41:31;;;;;;;2.75;0.85;;;;;;;5.41;92.28;96241.59;5032382;28;20041;-63
2023/04/13 06:44:12;;;;;;;4.50;0.93;;;;;;;5.43;91.73;96244.84;5024170;28;20528;-63
2023/04/13 06:46:54;;;;;;;3.35;1.13;;;;;;;5.38;90.89;96244.75;5028126;28;20524;-63
2023/04/13 06:49:23;;;;;;;3.13;0.98;;;;;;;5.23;91.58;96244.56;5022129;28;20572;-64
2023/04/13 06:51:50;;;;;;;7.07;1.30;;;;;;;5.28;91.91;96245.44;5011461;28;20420;-63
2023/04/13 06:54:16;;;;;;;2.85;0.68;;;;;;;5.24;91.97;96244.31;5032221;28;20049;-63
2023/04/13 06:56:47;;;;;;;3.58;1.20;;;;;;;5.34;90.14;96252.50;5023389;28;20053;-63
2023/04/13 06:59:13;;;;;;;3.97;0.75;;;;;;;5.60;88.01;96234.06;5028125;28;20061;-64
2023/04/13 07:01:40;;;;;;;4.00;1.00;;;;;;;5.47;87.66;96245.16;5030601;28;20050;-63
2023/04/13 07:04:06;;;;;;;4.68;0.82;;;;;;;5.50;87.48;96243.84;5035787;28;20037;-62
2023/04/13 07:06:34;;;;;;;4.85;1.02;;;;;;;5.59;88.17;96235.13;5033641;28;20052;-63
2023/04/13 07:09:00;;;;;;;6.97;1.02;;;;;;;5.63;86.20;96240.81;5033348;28;20045;-62
2023/04/13 07:11:28;;;;;;;4.88;1.15;;;;;;;5.60;87.24;96242.13;5026572;28;20049;-64
2023/04/13 07:13:55;;;;;;;4.78;1.20;;;;;;;5.63;86.72;96235.44;5021771;28;20053;-63
2023/04/13 07:16:23;;;;;;;3.72;1.35;;;;;;;5.67;87.70;96238.44;5020452;28;20042;-63
2023/04/13 07:18:50;;;;;;;4.85;0.95;;;;;;;5.57;85.72;96239.94;5021906;28;20050;-63
2023/04/13 07:21:17;;;;;;;7.00;1.10;;;;;;;5.70;87.20;96237.94;5018715;28;20052;-64
2023/04/13 07:24:04;;;;;;;3.38;0.82;;;;;;;5.66;86.65;96237.63;5029713;28;20063;-63
2023/04/13 07:26:33;;;;;;;3.72;0.85;;;;;;;5.68;87.68;96229.34;5027290;28;20038;-63
2023/04/13 07:29:00;;;;;;;6.55;1.10;;;;;;;5.68;87.08;96227.44;5027942;28;20037;-63
2023/04/13 07:31:31;;;;;;;2.75;0.77;;;;;;;5.81;86.83;96233.50;5025501;28;20401;-64
2023/04/13 07:33:58;;;;;;;5.75;1.00;;;;;;;5.87;85.72;96240.59;5022050;28;20101;-63
2023/04/13 07:36:31;;;;;;;8.45;1.70;;;;;;;6.07;85.93;96233.84;5028772;28;20049;-63
2023/04/13 07:39:03;;;;;;;6.80;1.30;;;;;;;6.33;82.81;96237.66;5022475;28;20123;-64
2023/04/13 07:41:31;;;;;;;11.00;2.10;;;;;;;6.42;83.32;96245.25;5037141;28;20040;-63
2023/04/13 07:44:00;;;;;;;3.97;1.27;;;;;;;6.49;82.99;96241.31;5034262;28;20835;-63
2023/04/13 07:46:26;;;;;;;4.90;1.00;;;;;;;6.86;80.68;96239.75;5028838;28;20065;-63
2023/04/13 07:48:54;;;;;;;4.78;0.95;;;;;;;6.86;80.47;96238.97;5030530;28;20144;-63
2023/04/13 07:51:25;;;;;;;5.43;1.25;;;;;;;7.06;80.91;96240.19;5026042;28;20060;-63
2023/04/13 07:53:52;;;;;;;12.98;2.13;;;;;;;6.88;78.44;96244.88;5020624;28;20119;-64
2023/04/13 07:56:20;;;;;;;5.07;1.13;;;;;;;6.90;81.10;96240.88;5022571;28;20049;-63
2023/04/13 07:58:49;;;;;;;5.78;1.52;;;;;;;7.22;78.67;96235.75;5028031;28;20053;-63
2023/04/13 08:01:18;;;;;;;3.83;1.10;;;;;;;7.11;78.31;96242.94;5027154;28;20053;-63
2023/04/13 08:03:44;;;;;;;7.20;1.25;;;;;;;7.04;76.65;96229.66;5037473;28;20049;-62
2023/04/13 08:06:19;;;;;;;4.78;1.08;;;;;;;6.92;77.33;96231.75;5028801;28;20050;-63
2023/04/13 08:08:46;;;;;;;4.35;0.90;;;;;;;6.90;79.63;96240.06;5026517;28;20044;-64
2023/04/13 08:11:13;;;;;;;7.28;1.05;;;;;;;6.96;79.86;96238.25;5036245;28;20045;-64
2023/04/13 08:13:41;;;;;;;3.83;1.10;;;;;;;7.15;77.56;96239.47;5033683;28;20762;-63
2023/04/13 08:16:08;;;;;;;8.20;1.25;;;;;;;6.82;78.80;96245.91;5023499;28;20069;-64
2023/04/13 08:18:36;;;;;;;6.40;1.65;;;;;;;6.87;80.06;96249.47;5035499;28;20041;-63
2023/04/13 08:21:10;;;;;;;7.15;1.42;;;;;;;6.73;76.97;96245.56;5027109;28;20530;-63
2023/04/13 08:23:40;;;;;;;7.97;1.45;;;;;;;6.74;78.19;96257.94;5036328;28;20037;-63
2023/04/13 08:26:15;;;;;;;7.88;1.17;;;;;;;6.81;79.79;96261.25;5018667;28;20053;-63
2023/04/13 08:28:42;;;;;;;4.97;1.52;;;;;;;6.94;80.04;96264.59;5025689;28;20045;-63
2023/04/13 08:31:08;;;;;;;7.22;1.05;;;;;;;6.94;79.43;96259.19;5031770;28;20045;-62
2023/04/13 08:33:37;;;;;;;3.60;0.95;;;;;;;6.73;78.22;96280.53;5020894;28;20054;-63
2023/04/13 08:36:04;;;;;;;3.25;0.95;;;;;;;6.71;78.95;96270.03;5031656;28;20456;-62
2023/04/13 08:38:33;;;;;;;5.25;1.00;;;;;;;6.89;78.59;96262.66;5021700;28;20037;-62
2023/04/13 08:41:03;;;;;;;8.98;1.27;;;;;;;6.88;78.37;96261.84;5032461;28;20071;-63
2023/04/13 08:43:32;;;;;;;3.47;0.82;;;;;;;7.09;77.14;96259.34;5028342;28;20202;-62
2023/04/13 08:45:59;;;;;;;9.13;1.17;;;;;;;7.15;76.72;96263.69;5025005;28;20044;-62
2023/04/13 08:48:26;;;;;;;4.95;1.50;;;;;;;7.31;76.74;96258.44;5026364;28;20061;-62
2023/04/13 08:50:58;;;;;;;;;;;;;;;7.46;73.69;96275.75;5034985;28;20502;-62
2023/04/13 08:53:28;;;;;;;5.07;0.85;;;;;;;7.54;70.29;96267.19;5024057;28;19967;-62
2023/04/13 08:56:01;;;;;;;5.10;1.17;;;;;;;7.77;68.39;96267.84;5022890;28;20046;-62
2023/04/13 08:58:33;;;;;;;9.80;1.45;;;;;;;7.79;68.32;96268.41;5025666;28;20045;-63
2023/04/13 09:01:00;;;;;;;5.18;1.10;;;;;;;8.10;68.28;96259.69;5036427;28;20052;-62
2023/04/13 09:03:32;;;;;;;4.35;1.10;;;;;;;7.98;67.27;96255.31;5030476;28;20103;-62
2023/04/13 09:06:07;;;;;;;5.70;1.10;;;;;;;7.81;66.72;96250.91;5033688;28;20197;-61
2023/04/13 09:08:35;;;;;;;5.80;1.00;;;;;;;7.68;65.16;96265.66;5032696;28;20037;-62
2023/04/13 09:11:04;;;;;;;6.75;0.90;;;;;;;7.43;65.43;96255.53;5022418;28;20049;-63
2023/04/13 09:13:31;;;;;;;6.05;1.27;;;;;;;7.52;66.94;96258.56;5030552;28;20128;-63
2023/04/13 09:15:59;;;;;;;5.05;0.80;;;;;;;7.21;68.52;96264.53;5021577;28;20455;-62
2023/04/13 09:18:56;;;;;;;3.28;0.73;;;;;;;7.43;68.79;96269.00;5034732;28;20069;-63
2023/04/13 09:21:39;;;;;;;4.03;0.70;;;;;;;7.63;68.02;96273.69;5025278;28;20037;-63
2023/04/13 09:24:07;;;;;;;4.40;0.90;;;;;;;7.38;66.83;96275.16;5022516;28;20095;-62
2023/04/13 09:26:47;;;;;;;3.58;1.00;;;;;;;7.23;68.33;96275.06;5028907;28;20041;-62
2023/04/13 09:29:16;;;;;;;4.30;1.48;;;;;;;7.20;69.34;96270.19;5028207;28;20120;-61
2023/04/13 09:31:44;;;;;;;5.85;1.15;;;;;;;7.25;69.43;96275.59;5028655;28;20045;-62
2023/04/13 09:34:12;;;;;;;8.40;1.05;;;;;;;7.31;70.90;96268.38;5035208;28;20060;-63
2023/04/13 09:36:40;;;;;;;4.40;1.35;;;;;;;7.36;69.97;96271.91;5037808;28;20048;-63
2023/04/13 09:39:26;;;;;;;3.60;1.35;;;;;;;7.58;69.65;96270.97;5036239;28;20041;-62
2023/04/13 09:41:55;;;;;;;3.53;0.98;;;;;;;7.66;68.94;96278.59;5036237;28;20037;-62
2023/04/13 09:44:23;;;;;;;5.72;1.30;;;;;;;7.61;68.28;96275.03;5034842;28;20041;-62
2023/04/13 09:47:01;;;;;;;4.00;1.60;;;;;;;7.69;66.70;96277.25;5033834;28;20061;-61
2023/04/13 09:49:40;;;;;;;5.13;1.20;;;;;;;7.66;67.27;96281.28;5037682;28;20029;-61
2023/04/13 09:52:26;;;;;;;8.60;1.65;;;;;;;7.62;67.12;96277.47;5029891;28;20044;-62
2023/04/13 09:54:54;;;;;;;5.82;1.45;;;;;;;7.79;68.45;96281.88;5036228;28;20094;-62
2023/04/13 09:57:31;;;;;;;6.70;1.38;;;;;;;7.93;66.98;96277.66;5034913;28;20044;-62
2023/04/13 09:59:59;;;;;;;6.38;1.10;;;;;;;7.84;66.65;96289.19;5035375;28;20042;-62
2023/04/13 10:02:38;;;;;;;5.15;0.80;;;;;;;8.09;65.09;96272.34;5038789;28;20573;-62
2023/04/13 10:05:08;;;;;;;4.47;1.17;;;;;;;8.10;65.74;96278.56;5038676;28;20105;-63
2023/04/13 10:07:36;;;;;;;4.75;1.20;;;;;;;7.84;63.99;96292.69;5038440;28;20045;-65
2023/04/13 10:10:03;;;;;;;6.00;1.30;;;;;;;7.67;64.52;96280.19;5041266;28;20531;-62
2023/04/13 10:12:32;;;;;;;6.93;1.10;;;;;;;7.97;66.44;96274.44;5035502;28;20930;-61
2023/04/13 10:15:31;;;;;;;9.45;1.40;;;;;;;8.10;65.82;96273.94;5038459;28;20056;-62
2023/04/13 10:18:19;;;;;;;3.20;1.10;;;;;;;8.17;65.05;96271.84;5021127;28;20087;-62
2023/04/13 10:20:48;;;;;;;6.13;1.05;;;;;;;8.44;62.30;96268.13;5031529;28;20818;-63
2023/04/13 10:23:15;;;;;;;8.13;1.23;;;;;;;8.58;62.55;96267.66;5037314;28;20114;-63
2023/04/13 10:25:53;;;;;;;5.82;1.10;;;;;;;8.72;61.12;96265.25;5032618;28;20120;-63
2023/04/13 10:28:20;;;;;;;6.60;1.35;;;;;;;8.88;62.13;96273.41;5026912;28;20049;-63
2023/04/13 10:30:50;;;;;;;4.35;0.80;;;;;;;8.97;61.30;96269.09;5032343;28;20045;-62
2023/04/13 10:33:17;;;;;;;5.15;1.50;;;;;;;8.82;60.49;96264.47;5036861;28;20095;-63
2023/04/13 10:35:58;;;;;;;4.63;1.10;;;;;;;8.44;61.98;96268.13;5042486;28;20049;-63
2023/04/13 10:38:26;;;;;;;6.85;1.48;;;;;;;8.26;64.48;96258.63;5035712;28;20435;-63
2023/04/13 10:40:52;;;;;;;6.68;1.23;;;;;;;8.23;65.36;96261.88;5025597;28;20758;-63
2023/04/13 10:43:29;;;;;;;3.65;0.75;;;;;;;8.38;65.71;96263.00;5036242;28;20596;-62
2023/04/13 10:46:07;;;;;;;4.90;0.98;;;;;;;8.68;66.10;96272.28;5039310;28;20044;-63
2023/04/13 10:48:34;;;;;;;4.60;0.90;;;;;;;8.50;69.33;96270.84;5040016;28;20037;-62
2023/04/13 10:51:00;;;;;;;7.65;1.83;;;;;;;8.26;74.54;96282.13;5030982;28;20079;-62
2023/04/13 10:53:29;;;;;;;6.80;1.23;;;;;;;7.45;81.68;96288.44;5029862;28;20560;-65
2023/04/13 10:55:56;;;;;;;3.38;0.88;;;;;;;7.47;87.25;96283.56;5036476;28;20041;-62
2023/04/13 10:58:23;;;;;;;6.00;1.20;;;;;;;7.70;86.59;96278.06;5033069;28;20041;-62
2023/04/13 11:00:50;;;;;;;5.35;1.50;;;;;;;7.87;84.73;96283.28;5030137;28;20046;-61
2023/04/13 11:03:19;;;;;;;3.63;0.80;;;;;;;8.04;83.22;96280.41;5026068;28;20108;-63
2023/04/13 11:05:55;;;;;;;4.20;0.80;;;;;;;8.41;81.07;96275.97;5028351;28;20049;-62
2023/04/13 11:08:23;;;;;;;5.88;1.55;;;;;;;8.96;80.70;96276.38;5028318;28;20065;-61
2023/04/13 11:10:51;;;;;;;4.78;0.60;;;;;;;8.48;74.81;96279.22;5033054;28;20088;-62
2023/04/13 11:13:18;;;;;;;3.17;0.43;;;;;;;8.82;75.71;96276.06;5038913;28;20144;-61
2023/04/13 11:15:48;;;;;;;2.53;0.75;;;;;;;8.73;73.72;96272.28;5038127;28;20041;-60
2023/04/13 11:18:25;;;;;;;1.92;0.50;;;;;;;8.82;70.90;96273.38;5038896;28;20045;-61
2023/04/13 11:20:52;;;;;;;2.15;0.60;;;;;;;8.56;73.76;96265.22;5037602;28;20082;-62
2023/04/13 11:23:22;;;;;;;1.15;0.50;;;;;;;8.81;74.16;96268.25;5038002;28;20053;-62
2023/04/13 11:25:53;;;;;;;4.32;0.70;;;;;;;8.92;72.25;96272.56;5036094;28;20045;-62
2023/04/13 11:28:25;;;;;;;3.25;0.77;;;;;;;9.06;69.21;96263.94;5032812;28;21172;-62
2023/04/13 11:30:55;;;;;;;1.60;0.45;;;;;;;9.21;71.66;96268.53;5033187;28;20064;-62
2023/04/13 11:33:23;;;;;;;2.60;0.70;;;;;;;9.52;68.27;96265.84;5031568;28;20083;-62
2023/04/13 11:35:50;;;;;;;2.25;0.57;;;;;;;9.18;68.06;96271.78;5031796;28;20056;-64
2023/04/13 11:38:17;;;;;;;3.22;0.60;;;;;;;9.28;70.51;96268.28;5031126;28;20041;-62
2023/04/13 11:40:44;;;;;;;2.22;0.50;;;;;;;9.07;65.91;96266.38;5030024;28;20132;-64
2023/04/13 11:43:13;;;;;;;2.78;0.60;;;;;;;9.30;64.17;96260.72;5030576;28;20080;-63
2023/04/13 11:45:42;;;;;;;2.30;0.40;;;;;;;9.60;65.55;96251.78;5033144;28;20876;-62
2023/04/13 11:48:08;;;;;;;1.15;0.47;;;;;;;9.20;66.00;96256.13;5037493;28;20049;-62
2023/04/13 11:50:36;;;;;;;5.00;0.52;;;;;;;8.76;67.19;96266.34;5032772;28;20127;-63
2023/04/13 11:53:03;;;;;;;1.30;0.55;;;;;;;8.95;68.64;96263.94;5031478;28;20049;-63
2023/04/13 11:55:31;;;;;;;4.25;0.60;;;;;;;9.11;69.11;96258.56;5035553;28;20072;-62